createdAt,value
2022-11-03T00:01:13.954Z,89.31
2022-11-03T00:03:31.011Z,89.19
2022-11-03T00:05:48.043Z,89.54
2022-11-03T00:08:05.090Z,89.05
2022-11-03T00:10:22.162Z,88.90
2022-11-03T00:12:39.270Z,88.99
2022-11-03T00:14:56.531Z,88.77
2022-11-03T00:17:13.442Z,88.71
2022-11-03T00:19:30.455Z,88.52
2022-11-03T00:21:47.410Z,89.06
2022-11-03T00:24:04.301Z,88.76
2022-11-03T00:26:21.626Z,88.73
2022-11-03T00:28:38.585Z,88.99
2022-11-03T00:30:56.685Z,88.99
2022-11-03T00:33:13.665Z,88.59
2022-11-03T00:35:30.752Z,89.77
2022-11-03T00:37:47.927Z,89.84
2022-11-03T00:40:05.925Z,89.23
2022-11-03T00:42:24.133Z,89.83
2022-11-03T00:44:41.314Z,90.04
2022-11-03T00:46:58.245Z,89.55
2022-11-03T00:49:15.224Z,89.88
2022-11-03T00:51:32.110Z,89.31
2022-11-03T00:53:49.136Z,88.94
2022-11-03T00:56:06.075Z,88.70
2022-11-03T00:58:23.345Z,88.95
2022-11-03T01:00:40.715Z,88.98
2022-11-03T01:02:58.660Z,89.33
2022-11-03T01:05:15.727Z,88.82
2022-11-03T01:07:32.801Z,89.67
2022-11-03T01:09:50.702Z,90.03
2022-11-03T01:12:08.009Z,89.99
2022-11-03T01:14:25.327Z,89.74
2022-11-03T01:16:42.270Z,89.92
2022-11-03T01:18:59.174Z,89.55
2022-11-03T01:21:16.449Z,88.90
2022-11-03T01:23:34.374Z,89.71
2022-11-03T01:25:51.306Z,90.05
2022-11-03T01:28:08.622Z,89.57
2022-11-03T01:30:25.749Z,89.10
2022-11-03T01:32:43.023Z,89.68
2022-11-03T01:34:59.968Z,89.36
2022-11-03T01:37:16.871Z,88.70
2022-11-03T01:39:34.131Z,90.08
2022-11-03T01:41:52.142Z,90.16
2022-11-03T01:44:09.072Z,89.45
2022-11-03T01:46:26.121Z,90.09
2022-11-03T01:48:43.445Z,89.53
2022-11-03T01:51:03.249Z,90.01
2022-11-03T01:53:20.513Z,89.55
2022-11-03T01:55:37.531Z,88.76
2022-11-03T01:57:54.495Z,90.23
2022-11-03T02:00:11.785Z,90.14
2022-11-03T02:02:29.006Z,89.43
2022-11-03T02:04:46.127Z,89.21
2022-11-03T02:07:03.317Z,89.73
2022-11-03T02:09:20.589Z,89.13
2022-11-03T02:11:38.823Z,90.05
2022-11-03T02:13:55.849Z,90.19
2022-11-03T02:16:14.157Z,89.62
2022-11-03T02:18:32.167Z,89.95
2022-11-03T02:20:49.432Z,89.57
2022-11-03T02:23:08.068Z,90.67
2022-11-03T02:25:25.671Z,90.51
2022-11-03T02:27:42.910Z,89.34
2022-11-03T02:30:00.157Z,89.75
2022-11-03T02:32:17.493Z,89.51
2022-11-03T02:34:35.866Z,89.36
2022-11-03T02:36:52.859Z,89.84
2022-11-03T02:39:11.149Z,88.98
2022-11-03T02:41:28.140Z,90.65
2022-11-03T02:43:45.102Z,89.59
2022-11-03T02:46:02.798Z,90.33
2022-11-03T02:48:21.010Z,90.32
2022-11-03T02:50:38.894Z,90.50
2022-11-03T02:52:55.958Z,90.93
2022-11-03T02:55:14.169Z,90.13
2022-11-03T02:57:32.428Z,90.11
2022-11-03T02:59:49.414Z,89.67
2022-11-03T03:02:07.352Z,90.74
2022-11-03T03:04:24.440Z,90.70
2022-11-03T03:06:42.127Z,89.76
2022-11-03T03:08:59.065Z,89.81
2022-11-03T03:11:16.206Z,90.16
2022-11-03T03:13:33.074Z,89.72
2022-11-03T03:15:50.237Z,90.05
2022-11-03T03:18:08.514Z,89.72
2022-11-03T03:20:25.844Z,90.01
2022-11-03T03:22:42.906Z,89.78
2022-11-03T03:25:01.110Z,89.44
2022-11-03T03:27:18.122Z,89.63
2022-11-03T03:29:36.214Z,89.79
2022-11-03T03:31:53.221Z,89.19
2022-11-03T03:34:31.404Z,89.32
2022-11-03T03:36:50.006Z,90.01
2022-11-03T03:39:09.176Z,89.48
2022-11-03T03:41:26.446Z,89.42
2022-11-03T03:43:43.335Z,89.86
2022-11-03T03:46:01.387Z,90.37
2022-11-03T03:48:19.084Z,90.08
2022-11-03T03:50:36.329Z,90.82
2022-11-03T03:52:53.387Z,89.80
2022-11-03T03:55:10.375Z,91.19
2022-11-03T03:57:27.714Z,89.77
2022-11-03T03:59:45.010Z,89.58
2022-11-03T04:02:02.128Z,90.74
2022-11-03T04:04:19.196Z,89.74
2022-11-03T04:06:36.446Z,89.81
2022-11-03T04:08:53.440Z,90.27
2022-11-03T04:11:10.330Z,89.86
2022-11-03T04:13:27.237Z,90.78
2022-11-03T04:15:44.462Z,90.16
2022-11-03T04:18:01.441Z,90.50
2022-11-03T04:20:18.652Z,90.50
2022-11-03T04:22:35.867Z,91.46
2022-11-03T04:24:52.909Z,90.89
2022-11-03T04:27:09.937Z,90.26
2022-11-03T04:29:27.132Z,89.37
2022-11-03T04:31:44.393Z,89.26
2022-11-03T04:34:01.362Z,88.94
2022-11-03T04:36:18.258Z,88.91
2022-11-03T04:38:35.302Z,89.77
2022-11-03T04:40:54.686Z,89.71
2022-11-03T04:43:12.349Z,90.55
2022-11-03T04:45:29.579Z,90.90
2022-11-03T04:47:46.841Z,90.24
2022-11-03T04:50:04.085Z,91.12
2022-11-03T04:52:21.042Z,89.77
2022-11-03T04:54:38.231Z,89.46
2022-11-03T04:56:55.479Z,89.97
2022-11-03T04:59:12.952Z,90.18
2022-11-03T05:01:30.323Z,89.67
2022-11-03T05:03:47.423Z,90.48
2022-11-03T05:06:05.406Z,90.28
2022-11-03T05:08:22.362Z,90.10
2022-11-03T05:10:41.097Z,90.74
2022-11-03T05:12:59.124Z,91.32
2022-11-03T05:15:16.361Z,90.86
2022-11-03T05:17:33.293Z,90.15
2022-11-03T05:19:50.488Z,89.98
2022-11-03T05:22:07.713Z,90.97
2022-11-03T05:24:25.068Z,90.82
2022-11-03T05:26:42.305Z,91.43
2022-11-03T05:28:59.272Z,90.96
2022-11-03T05:31:16.210Z,91.17
2022-11-03T05:33:34.285Z,90.91
2022-11-03T05:35:51.284Z,91.31
2022-11-03T05:38:08.910Z,91.54
2022-11-03T05:40:26.401Z,91.57
2022-11-03T05:42:43.335Z,90.50
2022-11-03T05:45:00.561Z,90.39
2022-11-03T05:47:17.534Z,90.37
2022-11-03T05:49:34.497Z,91.29
2022-11-03T05:51:52.537Z,90.84
2022-11-03T05:54:09.532Z,90.64
2022-11-03T05:56:26.807Z,90.46
2022-11-03T05:58:43.774Z,90.73
2022-11-03T06:01:00.806Z,91.61
2022-11-03T06:03:17.837Z,91.62
2022-11-03T06:05:34.851Z,91.79
2022-11-03T06:07:52.834Z,91.37
2022-11-03T06:10:10.819Z,91.41
2022-11-03T06:12:28.023Z,91.66
2022-11-03T06:14:45.291Z,91.54
2022-11-03T06:17:02.431Z,91.19
2022-11-03T06:19:19.624Z,91.54
2022-11-03T06:21:40.475Z,91.17
2022-11-03T06:24:00.653Z,91.65
2022-11-03T06:26:17.705Z,90.34
2022-11-03T06:28:34.593Z,90.23
2022-11-03T06:30:52.212Z,90.47
2022-11-03T06:33:09.656Z,90.25
2022-11-03T06:35:26.772Z,91.04
2022-11-03T06:37:44.597Z,90.32
2022-11-03T06:40:01.662Z,91.61
2022-11-03T06:42:19.533Z,91.71
2022-11-03T06:44:36.563Z,91.29
2022-11-03T06:46:53.767Z,91.63
2022-11-03T06:49:10.684Z,91.26
2022-11-03T06:51:27.692Z,91.32
2022-11-03T06:53:44.738Z,91.54
2022-11-03T06:56:01.978Z,92.20
2022-11-03T06:58:19.327Z,92.06
2022-11-03T07:00:38.749Z,91.37
2022-11-03T07:02:57.107Z,91.54
2022-11-03T07:05:14.402Z,92.02
2022-11-03T07:07:31.575Z,92.04
2022-11-03T07:09:48.857Z,92.41
2022-11-03T07:12:05.849Z,91.92
2022-11-03T07:14:23.657Z,91.85
2022-11-03T07:16:40.717Z,91.71
2022-11-03T07:18:57.704Z,91.33
2022-11-03T07:21:14.692Z,91.49
2022-11-03T07:23:31.613Z,90.96
2022-11-03T07:25:48.706Z,90.88
2022-11-03T07:28:06.135Z,90.70
2022-11-03T07:30:23.539Z,91.37
2022-11-03T07:32:40.511Z,91.52
2022-11-03T07:34:57.548Z,91.26
2022-11-03T07:37:14.754Z,92.61
2022-11-03T07:39:32.030Z,91.42
2022-11-03T07:41:49.058Z,91.69
2022-11-03T07:44:06.327Z,91.90
2022-11-03T07:46:23.727Z,91.05
2022-11-03T07:48:41.627Z,92.29
2022-11-03T07:50:59.562Z,92.64
2022-11-03T07:53:16.758Z,91.55
2022-11-03T07:55:33.734Z,91.71
2022-11-03T07:57:50.649Z,91.63
2022-11-03T08:00:10.286Z,91.62
2022-11-03T08:02:28.088Z,92.57
2022-11-03T08:04:45.049Z,91.69
2022-11-03T08:07:01.970Z,92.24
2022-11-03T08:09:18.983Z,91.99
2022-11-03T08:11:36.072Z,91.51
2022-11-03T08:13:53.272Z,91.37
2022-11-03T08:16:10.293Z,91.57
2022-11-03T08:18:27.190Z,91.94
2022-11-03T08:20:44.462Z,92.30
2022-11-03T08:25:38.471Z,91.86
2022-11-03T08:27:55.694Z,92.14
2022-11-03T08:30:12.927Z,92.01
2022-11-03T08:32:30.183Z,91.56
2022-11-03T08:34:47.218Z,91.58
2022-11-03T08:37:04.428Z,91.40
2022-11-03T08:39:21.424Z,91.48
2022-11-03T08:41:39.438Z,91.63
2022-11-03T08:43:56.441Z,91.65
2022-11-03T08:46:17.573Z,91.53
2022-11-03T08:48:35.152Z,91.84
2022-11-03T08:50:52.250Z,91.59
2022-11-03T08:53:09.229Z,91.31
2022-11-03T08:55:26.520Z,91.68
2022-11-03T08:57:43.718Z,92.25
2022-11-03T09:00:00.670Z,92.45
2022-11-03T09:02:17.806Z,92.48
2022-11-03T09:04:36.060Z,90.90
2022-11-03T09:06:53.034Z,91.01
2022-11-03T09:11:47.167Z,91.43
2022-11-03T09:14:04.424Z,90.38
2022-11-03T09:16:21.439Z,90.39
2022-11-03T09:18:38.701Z,90.66
2022-11-03T09:20:55.644Z,89.94
2022-11-03T09:23:12.544Z,90.29
2022-11-03T09:25:29.766Z,90.79
2022-11-03T09:27:46.706Z,90.03
2022-11-03T09:30:18.490Z,90.17
2022-11-03T09:32:35.422Z,89.22
2022-11-03T09:34:52.458Z,89.34
2022-11-03T09:37:09.493Z,90.29
2022-11-03T09:39:26.732Z,89.31
2022-11-03T09:41:57.239Z,90.80
2022-11-03T09:44:15.519Z,89.56
2022-11-03T09:46:32.593Z,90.79
2022-11-03T09:48:49.884Z,89.64
2022-11-03T09:51:07.119Z,91.13
2022-11-03T09:53:24.122Z,89.84
2022-11-03T09:55:41.197Z,90.25
2022-11-03T09:57:58.440Z,90.14
2022-11-03T10:00:16.417Z,89.36
2022-11-03T10:02:33.722Z,89.34
2022-11-03T10:04:50.833Z,90.16
2022-11-03T10:07:07.900Z,90.19
2022-11-03T10:09:24.861Z,90.74
2022-11-03T10:11:42.158Z,90.00
2022-11-03T10:14:00.093Z,91.28
2022-11-03T10:16:17.031Z,91.33
2022-11-03T10:18:34.013Z,90.06
2022-11-03T10:20:51.319Z,90.68
2022-11-03T10:23:08.652Z,90.14
2022-11-03T10:25:27.126Z,90.09
2022-11-03T10:27:44.402Z,89.53
2022-11-03T10:30:01.643Z,90.59
2022-11-03T10:32:18.911Z,90.21
2022-11-03T10:34:35.938Z,89.36
2022-11-03T10:36:54.314Z,89.27
2022-11-03T10:39:11.558Z,89.43
2022-11-03T10:41:28.842Z,90.71
2022-11-03T10:43:46.233Z,89.11
2022-11-03T10:46:06.217Z,90.52
2022-11-03T10:48:25.476Z,90.20
2022-11-03T10:50:43.445Z,88.78
2022-11-03T10:53:00.409Z,89.19
2022-11-03T10:55:20.622Z,88.85
2022-11-03T10:57:42.991Z,88.12
2022-11-03T11:00:01.234Z,87.94
2022-11-03T11:02:18.272Z,88.71
2022-11-03T11:04:35.424Z,88.50
2022-11-03T11:06:52.449Z,89.59
2022-11-03T11:09:10.506Z,89.94
2022-11-03T11:11:27.505Z,89.38
2022-11-03T11:13:44.768Z,89.10
2022-11-03T11:16:01.780Z,88.82
2022-11-03T11:18:18.814Z,89.80
2022-11-03T11:20:36.749Z,89.66
2022-11-03T11:22:53.785Z,89.65
2022-11-03T11:25:11.033Z,89.64
2022-11-03T11:27:28.338Z,89.92
2022-11-03T11:29:45.356Z,89.65
2022-11-03T11:32:02.662Z,88.80
2022-11-03T11:34:19.617Z,89.88
2022-11-03T11:36:36.658Z,89.65
2022-11-03T11:38:54.649Z,89.97
2022-11-03T11:41:11.662Z,89.17
2022-11-03T11:43:28.574Z,90.70
2022-11-03T11:45:45.794Z,89.44
2022-11-03T11:48:03.371Z,89.48
2022-11-03T11:50:21.344Z,90.30
2022-11-03T11:52:38.378Z,89.80
2022-11-03T11:54:55.710Z,88.95
2022-11-03T11:57:12.654Z,88.85
2022-11-03T11:59:29.616Z,89.10
2022-11-03T12:01:46.669Z,88.84
2022-11-03T12:04:07.178Z,87.47
2022-11-03T12:06:24.827Z,87.31
2022-11-03T12:08:42.058Z,88.06
2022-11-03T12:10:59.344Z,88.05
2022-11-03T12:13:16.454Z,87.05
2022-11-03T12:15:33.797Z,87.78
2022-11-03T12:17:51.583Z,87.40
2022-11-03T12:20:08.903Z,86.39
2022-11-03T12:22:25.931Z,87.20
2022-11-03T12:24:44.287Z,87.10
2022-11-03T12:27:02.793Z,86.46
2022-11-03T12:29:19.745Z,86.82
2022-11-03T12:31:38.722Z,85.50
2022-11-03T12:33:55.681Z,86.73
2022-11-03T12:36:12.988Z,87.17
2022-11-03T12:38:30.202Z,87.45
2022-11-03T12:40:47.358Z,87.79
2022-11-03T12:43:04.744Z,86.85
2022-11-03T12:45:22.230Z,87.97
2022-11-03T12:47:41.679Z,86.82
2022-11-03T12:49:58.911Z,87.17
2022-11-03T12:52:18.317Z,88.07
2022-11-03T12:54:35.388Z,87.94
2022-11-03T12:56:53.636Z,88.00
2022-11-03T12:59:10.931Z,87.48
2022-11-03T13:01:28.717Z,88.27
2022-11-03T13:03:46.902Z,87.76
2022-11-03T13:06:03.871Z,87.67
2022-11-03T13:08:22.171Z,87.98
2022-11-03T13:10:39.235Z,87.78
2022-11-03T13:12:56.494Z,89.10
2022-11-03T13:15:13.763Z,89.00
2022-11-03T13:17:35.939Z,88.49
2022-11-03T13:20:02.996Z,88.00
2022-11-03T13:22:20.309Z,88.38
2022-11-03T13:24:37.511Z,89.10
2022-11-03T13:26:54.778Z,87.91
2022-11-03T13:29:12.127Z,88.05
2022-11-03T13:31:29.477Z,87.56
2022-11-03T13:33:46.633Z,87.24
2022-11-03T13:36:03.694Z,86.62
2022-11-03T13:38:20.989Z,85.71
2022-11-03T13:43:15.206Z,85.03
2022-11-03T13:45:32.224Z,84.73
2022-11-03T13:48:30.065Z,83.60
2022-11-03T13:50:26.374Z,83.53
2022-11-03T13:52:43.476Z,83.89
2022-11-03T14:00:15.548Z,84.72
2022-11-03T14:05:11.659Z,85.60
2022-11-03T14:07:29.093Z,85.89
2022-11-03T14:09:46.019Z,86.55
2022-11-03T14:12:03.318Z,86.77
2022-11-03T14:14:21.539Z,87.22
2022-11-03T14:16:38.531Z,87.89
2022-11-03T14:18:55.940Z,88.69
2022-11-03T14:21:14.135Z,88.60
2022-11-03T14:23:31.089Z,90.42
2022-11-03T14:26:00.373Z,89.52
2022-11-03T14:28:26.416Z,90.95
2022-11-03T14:30:43.711Z,90.32
2022-11-03T14:33:00.746Z,91.31
2022-11-03T14:35:17.699Z,91.74
2022-11-03T14:37:34.670Z,92.42
2022-11-03T14:39:51.827Z,93.34
2022-11-03T14:42:10.161Z,93.08
2022-11-03T14:44:27.159Z,92.84
2022-11-03T14:46:44.275Z,93.48
2022-11-03T14:49:01.288Z,94.33
2022-11-03T14:51:18.326Z,93.37
2022-11-03T14:53:35.340Z,95.08
2022-11-03T14:55:53.673Z,95.17
2022-11-03T14:58:10.789Z,95.53
2022-11-03T15:00:29.090Z,95.94
2022-11-03T15:02:46.127Z,96.27
2022-11-03T15:05:04.199Z,95.84
2022-11-03T15:07:21.317Z,96.68
2022-11-03T15:09:38.405Z,96.20
2022-11-03T15:11:55.549Z,96.09
2022-11-03T15:14:12.588Z,96.61
2022-11-03T15:16:29.852Z,95.55
2022-11-03T15:18:47.940Z,96.58
2022-11-03T15:21:05.301Z,96.87
2022-11-03T15:25:59.384Z,96.35
2022-11-03T15:28:16.441Z,96.73
2022-11-03T15:30:33.870Z,96.90
2022-11-03T15:32:50.797Z,97.27
2022-11-03T15:35:07.726Z,97.06
2022-11-03T15:37:24.766Z,96.02
2022-11-03T15:39:42.118Z,97.39
2022-11-03T15:41:59.315Z,97.87
2022-11-03T15:44:16.557Z,97.46
2022-11-03T15:46:33.632Z,97.00
2022-11-03T15:48:50.779Z,97.29
2022-11-03T15:51:08.819Z,97.43
2022-11-03T15:53:25.813Z,97.71
2022-11-03T15:55:43.154Z,97.58
2022-11-03T15:58:00.168Z,98.50
2022-11-03T16:00:18.411Z,97.53
2022-11-03T16:02:41.346Z,96.75
2022-11-03T16:04:59.141Z,97.24
2022-11-03T16:07:16.194Z,97.75
2022-11-03T16:09:33.494Z,97.59
2022-11-03T16:11:50.389Z,97.31
2022-11-03T16:14:07.422Z,97.28
2022-11-03T16:16:24.667Z,97.78
2022-11-03T16:18:41.717Z,98.01
2022-11-03T16:20:59.911Z,97.42
2022-11-03T16:23:17.184Z,96.85
2022-11-03T16:25:35.253Z,97.10
2022-11-03T16:27:52.498Z,97.75
2022-11-03T16:30:09.877Z,97.28
2022-11-03T16:32:27.182Z,98.61
2022-11-03T16:34:44.167Z,98.21
2022-11-03T16:37:01.112Z,97.78
2022-11-03T16:39:19.298Z,97.98
2022-11-03T16:41:37.517Z,97.30
2022-11-03T16:43:54.768Z,97.64
2022-11-03T16:46:11.991Z,98.21
2022-11-03T16:48:29.029Z,97.27
2022-11-03T16:50:46.303Z,98.16
2022-11-03T16:53:04.834Z,96.93
2022-11-03T16:55:22.176Z,98.30
2022-11-03T16:57:39.124Z,97.12
2022-11-03T16:59:56.647Z,97.73
2022-11-03T17:02:16.440Z,98.38
2022-11-03T17:04:33.880Z,98.44
2022-11-03T17:06:50.925Z,97.09
2022-11-03T17:09:08.921Z,97.33
2022-11-03T17:11:26.254Z,97.95
2022-11-03T17:13:44.787Z,98.13
2022-11-03T17:16:03.092Z,97.67
2022-11-03T17:18:20.406Z,98.16
2022-11-03T17:20:37.758Z,98.97
2022-11-03T17:22:55.050Z,98.13
2022-11-03T17:25:13.129Z,99.40
2022-11-03T17:27:30.388Z,98.24
2022-11-03T17:29:47.429Z,98.14
2022-11-03T17:32:04.340Z,98.34
2022-11-03T17:34:22.480Z,99.09
2022-11-03T17:36:39.794Z,98.89
2022-11-03T17:38:56.851Z,98.98
2022-11-03T17:41:17.979Z,100.00
2022-11-03T17:43:36.128Z,99.59
2022-11-03T17:45:53.446Z,99.97
2022-11-03T17:48:11.789Z,99.57
2022-11-03T17:50:29.035Z,99.09
2022-11-03T17:52:46.986Z,99.48
2022-11-03T17:55:04.184Z,100.00
2022-11-03T17:57:22.244Z,99.25
2022-11-03T17:59:39.259Z,99.12
2022-11-03T18:01:56.571Z,98.79
2022-11-03T18:06:31.806Z,98.92
2022-11-03T18:08:49.073Z,100.00
2022-11-03T18:11:06.389Z,99.35
2022-11-03T18:13:23.778Z,99.37
2022-11-03T18:15:41.056Z,98.69
2022-11-03T18:17:58.349Z,99.10
2022-11-03T18:20:15.650Z,98.98
2022-11-03T18:22:33.019Z,98.90
2022-11-03T18:24:50.333Z,99.22
2022-11-03T18:27:07.432Z,99.49
2022-11-03T18:29:24.495Z,100.00
2022-11-03T18:31:42.454Z,100.00
2022-11-03T18:33:59.394Z,100.00
2022-11-03T18:36:16.737Z,100.00
2022-11-03T18:38:33.876Z,100.00
2022-11-03T18:40:50.788Z,99.79
2022-11-03T18:43:09.003Z,100.00
2022-11-03T18:45:26.518Z,100.00
2022-11-03T18:47:43.581Z,100.00
2022-11-03T18:50:00.893Z,100.00
2022-11-03T18:52:19.091Z,100.00
2022-11-03T18:54:36.007Z,100.00
2022-11-03T18:56:52.973Z,100.00
2022-11-03T18:59:09.992Z,100.00
2022-11-03T19:01:27.331Z,100.00
2022-11-03T19:03:44.758Z,100.00
2022-11-03T19:06:01.835Z,100.00
2022-11-03T19:08:20.085Z,100.00
2022-11-03T19:10:37.067Z,100.00
2022-11-03T19:12:54.253Z,100.00
2022-11-03T19:15:11.540Z,100.00
2022-11-03T19:17:28.598Z,100.00
2022-11-03T19:19:45.551Z,100.00
2022-11-03T19:22:02.507Z,100.00
2022-11-03T19:24:19.810Z,100.00
2022-11-03T19:26:36.862Z,100.00
2022-11-03T19:28:55.621Z,100.00
2022-11-03T19:31:12.588Z,100.00
2022-11-03T19:33:29.658Z,100.00
2022-11-03T19:35:47.758Z,100.00
2022-11-03T19:38:06.370Z,100.00
2022-11-03T19:40:23.827Z,100.00
2022-11-03T19:42:41.133Z,100.00
2022-11-03T19:44:58.366Z,100.00
2022-11-03T19:47:15.748Z,100.00
2022-11-03T19:49:33.791Z,100.00
2022-11-03T19:51:50.807Z,100.00
2022-11-03T19:54:08.093Z,100.00
2022-11-03T19:56:25.174Z,100.00
2022-11-03T19:58:42.428Z,100.00
2022-11-03T20:01:04.143Z,100.00
2022-11-03T20:03:24.335Z,100.00
2022-11-03T20:05:45.181Z,100.00
2022-11-03T20:08:06.120Z,100.00
2022-11-03T20:10:23.619Z,100.00
2022-11-03T20:12:40.600Z,100.00
2022-11-03T20:14:57.536Z,100.00
2022-11-03T20:17:15.878Z,100.00
2022-11-03T20:19:33.107Z,100.00
2022-11-03T20:21:50.048Z,100.00
2022-11-03T20:24:07.342Z,100.00
2022-11-03T20:26:24.412Z,100.00
2022-11-03T20:28:41.462Z,100.00
2022-11-03T20:30:58.575Z,100.00
2022-11-03T20:33:15.871Z,100.00
2022-11-03T20:35:32.940Z,100.00
2022-11-03T20:37:50.278Z,100.00
2022-11-03T20:40:07.526Z,100.00
2022-11-03T20:42:24.867Z,100.00
2022-11-03T20:44:41.943Z,100.00
2022-11-03T20:46:58.839Z,100.00
2022-11-03T20:49:15.895Z,100.00
2022-11-03T20:51:32.903Z,100.00
2022-11-03T20:53:50.170Z,100.00
2022-11-03T20:56:07.475Z,100.00
2022-11-03T20:58:25.489Z,100.00
2022-11-03T21:00:42.752Z,100.00
2022-11-03T21:02:59.718Z,100.00
2022-11-03T21:05:16.946Z,100.00
2022-11-03T21:07:34.166Z,100.00
2022-11-03T21:09:51.440Z,100.00
2022-11-03T21:12:08.705Z,100.00
2022-11-03T21:14:25.653Z,100.00
2022-11-03T21:16:42.966Z,100.00
2022-11-03T21:19:00.263Z,100.00
2022-11-03T21:21:21.044Z,100.00
2022-11-03T21:23:38.510Z,100.00
2022-11-03T21:25:56.426Z,100.00
2022-11-03T21:28:13.754Z,100.00
2022-11-03T21:30:31.797Z,100.00
2022-11-03T21:32:48.753Z,100.00
2022-11-03T21:35:06.086Z,100.00
2022-11-03T21:37:23.300Z,100.00
2022-11-03T21:39:40.532Z,100.00
2022-11-03T21:41:57.860Z,100.00
2022-11-03T21:44:14.826Z,100.00
2022-11-03T21:46:35.145Z,100.00
2022-11-03T21:48:52.138Z,100.00
2022-11-03T21:51:10.428Z,100.00
2022-11-03T21:53:30.204Z,100.00
2022-11-03T21:55:47.213Z,100.00
2022-11-03T21:58:04.341Z,100.00
2022-11-03T22:00:22.297Z,100.00
2022-11-03T22:02:39.614Z,100.00
2022-11-03T22:04:56.535Z,100.00
2022-11-03T22:07:13.479Z,100.00
2022-11-03T22:09:31.158Z,100.00
2022-11-03T22:11:48.394Z,100.00
2022-11-03T22:14:06.644Z,100.00
2022-11-03T22:16:23.931Z,100.00
2022-11-03T22:18:41.008Z,100.00
2022-11-03T22:20:58.285Z,100.00
2022-11-03T22:23:15.981Z,100.00
2022-11-03T22:25:33.209Z,100.00
2022-11-03T22:27:50.441Z,100.00
2022-11-03T22:30:08.939Z,100.00
2022-11-03T22:32:25.940Z,100.00
2022-11-03T22:34:42.896Z,100.00
2022-11-03T22:36:59.828Z,100.00
2022-11-03T22:39:17.813Z,100.00
2022-11-03T22:41:35.113Z,100.00
2022-11-03T22:43:52.085Z,100.00
2022-11-03T22:46:09.382Z,100.00
2022-11-03T22:48:26.649Z,100.00
2022-11-03T22:50:43.592Z,100.00
2022-11-03T22:53:00.800Z,100.00
2022-11-03T22:55:19.092Z,100.00
2022-11-03T22:57:36.323Z,100.00
2022-11-03T22:59:53.357Z,100.00
2022-11-03T23:02:10.668Z,100.00
2022-11-03T23:04:27.809Z,100.00
2022-11-03T23:06:45.842Z,100.00
2022-11-03T23:09:02.813Z,100.00
2022-11-03T23:11:19.808Z,100.00
2022-11-03T23:13:36.805Z,100.00
2022-11-03T23:15:54.698Z,100.00
2022-11-03T23:18:12.055Z,100.00
2022-11-03T23:20:29.119Z,100.00
2022-11-03T23:22:48.806Z,100.00
2022-11-03T23:25:05.832Z,100.00
2022-11-03T23:27:24.050Z,100.00
2022-11-03T23:29:41.142Z,100.00
2022-11-03T23:31:58.146Z,100.00
2022-11-03T23:34:15.123Z,100.00
2022-11-03T23:36:32.088Z,100.00
2022-11-03T23:38:56.324Z,100.00
2022-11-03T23:41:13.809Z,100.00
2022-11-03T23:43:33.687Z,100.00
2022-11-03T23:45:51.128Z,100.00
2022-11-03T23:48:08.405Z,100.00
2022-11-03T23:50:26.693Z,100.00
2022-11-03T23:52:45.931Z,100.00
2022-11-03T23:55:03.405Z,100.00
2022-11-03T23:57:20.518Z,100.00
2022-11-03T23:59:37.563Z,100.00
